sensor_id;sensor_type;location;lat;lon;timestamp;pressure;altitude;pressure_sealevel;temperature;humidity
27980;BME280;15315;50.836;4.430;2023-01-20T00:02:04;100620.44;;;5.80;100.00
27980;BME280;15315;50.836;4.430;2023-01-20T00:12:05;100636.09;;;5.70;100.00
27980;BME280;15315;50.836;4.430;2023-01-20T00:22:05;100637.31;;;5.12;100.00
27980;BME280;15315;50.836;4.430;2023-01-20T00:32:06;100642.69;;;5.80;100.00
27980;BME280;15315;50.836;4.430;2023-01-20T00:42:06;100651.19;;;5.54;100.00
27980;BME280;15315;50.836;4.430;2023-01-20T00:52:06;100662.84;;;5.87;100.00
27980;BME280;15315;50.836;4.430;2023-01-20T01:02:07;100678.00;;;5.53;100.00
27980;BME280;15315;50.836;4.430;2023-01-20T01:12:07;100676.34;;;5.50;100.00
27980;BME280;15315;50.836;4.430;2023-01-20T01:22:07;100690.50;;;5.35;100.00
27980;BME280;15315;50.836;4.430;2023-01-20T01:32:08;100695.91;;;5.50;100.00
27980;BME280;15315;50.836;4.430;2023-01-20T01:42:13;100707.63;;;4.36;100.00
27980;BME280;15315;50.836;4.430;2023-01-20T01:52:13;100732.91;;;4.87;100.00
27980;BME280;15315;50.836;4.430;2023-01-20T02:02:14;100736.06;;;5.32;100.00
27980;BME280;15315;50.836;4.430;2023-01-20T02:12:17;100739.28;;;5.38;100.00
27980;BME280;15315;50.836;4.430;2023-01-20T02:32:51;100733.91;;;5.03;100.00
27980;BME280;15315;50.836;4.430;2023-01-20T02:43:07;100747.94;;;4.69;100.00
27980;BME280;15315;50.836;4.430;2023-01-20T02:53:11;100744.03;;;4.57;100.00
27980;BME280;15315;50.836;4.430;2023-01-20T03:03:17;100737.97;;;4.54;100.00
27980;BME280;15315;50.836;4.430;2023-01-20T03:13:30;100753.97;;;4.54;100.00
27980;BME280;15315;50.836;4.430;2023-01-20T03:23:34;100747.13;;;4.28;100.00
27980;BME280;15315;50.836;4.430;2023-01-20T03:33:35;100757.91;;;5.04;100.00
27980;BME280;15315;50.836;4.430;2023-01-20T03:43:43;100750.81;;;5.22;100.00
27980;BME280;15315;50.836;4.430;2023-01-20T03:53:55;100751.09;;;4.78;100.00
27980;BME280;15315;50.836;4.430;2023-01-20T04:04:00;100757.41;;;4.37;100.00
27980;BME280;15315;50.836;4.430;2023-01-20T04:14:01;100750.31;;;4.56;100.00
27980;BME280;15315;50.836;4.430;2023-01-20T04:34:24;100773.34;;;5.16;100.00
27980;BME280;15315;50.836;4.430;2023-01-20T04:44:25;100781.34;;;5.16;100.00
27980;BME280;15315;50.836;4.430;2023-01-20T04:54:25;100779.53;;;4.98;100.00
27980;BME280;15315;50.836;4.430;2023-01-20T05:04:25;100785.25;;;4.91;100.00
27980;BME280;15315;50.836;4.430;2023-01-20T05:14:26;100785.03;;;4.36;100.00
27980;BME280;15315;50.836;4.430;2023-01-20T05:24:26;100792.09;;;4.57;100.00
27980;BME280;15315;50.836;4.430;2023-01-20T05:34:27;100788.19;;;4.84;100.00
27980;BME280;15315;50.836;4.430;2023-01-20T05:44:27;100794.56;;;5.01;100.00
27980;BME280;15315;50.836;4.430;2023-01-20T05:54:27;100796.81;;;4.31;100.00
27980;BME280;15315;50.836;4.430;2023-01-20T06:04:28;100785.34;;;4.29;100.00
27980;BME280;15315;50.836;4.430;2023-01-20T06:14:28;100800.66;;;4.45;100.00
27980;BME280;15315;50.836;4.430;2023-01-20T06:24:28;100806.50;;;4.73;100.00
27980;BME280;15315;50.836;4.430;2023-01-20T06:34:29;100806.78;;;5.25;100.00
27980;BME280;15315;50.836;4.430;2023-01-20T06:44:29;100816.22;;;4.56;100.00
27980;BME280;15315;50.836;4.430;2023-01-20T06:54:30;100813.22;;;4.82;100.00
27980;BME280;15315;50.836;4.430;2023-01-20T07:04:31;100843.69;;;5.17;100.00
27980;BME280;15315;50.836;4.430;2023-01-20T07:14:31;100849.75;;;4.61;100.00
27980;BME280;15315;50.836;4.430;2023-01-20T07:24:32;100875.28;;;4.68;100.00
27980;BME280;15315;50.836;4.430;2023-01-20T07:34:32;100866.72;;;5.38;100.00
27980;BME280;15315;50.836;4.430;2023-01-20T07:44:33;100854.94;;;5.23;100.00
27980;BME280;15315;50.836;4.430;2023-01-20T07:54:33;100868.69;;;5.53;100.00
27980;BME280;15315;50.836;4.430;2023-01-20T08:04:34;100880.91;;;5.59;100.00
27980;BME280;15315;50.836;4.430;2023-01-20T08:14:34;100878.94;;;5.43;100.00
27980;BME280;15315;50.836;4.430;2023-01-20T08:24:34;100877.03;;;5.08;100.00
27980;BME280;15315;50.836;4.430;2023-01-20T08:34:35;100898.66;;;5.22;100.00
27980;BME280;15315;50.836;4.430;2023-01-20T08:44:35;100883.06;;;5.32;100.00
27980;BME280;15315;50.836;4.430;2023-01-20T08:54:35;100887.97;;;5.41;100.00
27980;BME280;15315;50.836;4.430;2023-01-20T09:04:36;100908.66;;;5.56;100.00
27980;BME280;15315;50.836;4.430;2023-01-20T09:14:37;100907.56;;;5.79;100.00
27980;BME280;15315;50.836;4.430;2023-01-20T09:24:38;100922.31;;;5.11;100.00
27980;BME280;15315;50.836;4.430;2023-01-20T09:34:39;100929.44;;;5.88;100.00
27980;BME280;15315;50.836;4.430;2023-01-20T09:44:51;100933.19;;;6.22;100.00
27980;BME280;15315;50.836;4.430;2023-01-20T09:54:59;100937.97;;;5.78;100.00
27980;BME280;15315;50.836;4.430;2023-01-20T10:05:16;100941.56;;;5.38;100.00
27980;BME280;15315;50.836;4.430;2023-01-20T10:15:30;100946.56;;;6.03;100.00
27980;BME280;15315;50.836;4.430;2023-01-20T10:25:39;100942.75;;;5.51;100.00
27980;BME280;15315;50.836;4.430;2023-01-20T10:35:46;100932.44;;;6.54;100.00
27980;BME280;15315;50.836;4.430;2023-01-20T10:46:32;100937.28;;;7.16;100.00
27980;BME280;15315;50.836;4.430;2023-01-20T10:56:43;100929.00;;;7.03;100.00
27980;BME280;15315;50.836;4.430;2023-01-20T11:06:54;100916.06;;;7.44;100.00
27980;BME280;15315;50.836;4.430;2023-01-20T11:17:02;100928.19;;;7.18;100.00
27980;BME280;15315;50.836;4.430;2023-01-20T11:27:15;100935.25;;;7.36;100.00
27980;BME280;15315;50.836;4.430;2023-01-20T11:37:18;100923.69;;;7.69;100.00
27980;BME280;15315;50.836;4.430;2023-01-20T11:47:35;100918.84;;;8.22;100.00
27980;BME280;15315;50.836;4.430;2023-01-20T11:57:57;100919.25;;;8.76;100.00
27980;BME280;15315;50.836;4.430;2023-01-20T12:08:00;100915.56;;;8.62;100.00
27980;BME280;15315;50.836;4.430;2023-01-20T12:18:14;100906.25;;;9.28;100.00
27980;BME280;15315;50.836;4.430;2023-01-20T12:28:19;100917.00;;;8.38;100.00
27980;BME280;15315;50.836;4.430;2023-01-20T12:38:22;100896.94;;;9.03;100.00
27980;BME280;15315;50.836;4.430;2023-01-20T13:19:47;100904.47;;;8.83;100.00
27980;BME280;15315;50.836;4.430;2023-01-20T13:39:49;100889.81;;;9.32;100.00
27980;BME280;15315;50.836;4.430;2023-01-20T13:49:51;100892.19;;;9.65;100.00
27980;BME280;15315;50.836;4.430;2023-01-20T13:59:53;100901.53;;;9.59;100.00
27980;BME280;15315;50.836;4.430;2023-01-20T14:09:55;100902.97;;;9.22;100.00
27980;BME280;15315;50.836;4.430;2023-01-20T14:19:57;100891.56;;;9.33;100.00
27980;BME280;15315;50.836;4.430;2023-01-20T14:30:18;100913.75;;;8.63;100.00
27980;BME280;15315;50.836;4.430;2023-01-20T14:40:28;100919.06;;;9.08;100.00
27980;BME280;15315;50.836;4.430;2023-01-20T14:50:30;100932.66;;;8.91;100.00
27980;BME280;15315;50.836;4.430;2023-01-20T15:00:31;100941.34;;;8.51;100.00
27980;BME280;15315;50.836;4.430;2023-01-20T15:10:33;100950.13;;;8.08;100.00
27980;BME280;15315;50.836;4.430;2023-01-20T15:20:34;100953.66;;;8.85;100.00
27980;BME280;15315;50.836;4.430;2023-01-20T15:30:35;100958.91;;;9.46;100.00
27980;BME280;15315;50.836;4.430;2023-01-20T15:40:36;100958.16;;;9.72;100.00
27980;BME280;15315;50.836;4.430;2023-01-20T15:50:38;100972.97;;;9.07;100.00
27980;BME280;15315;50.836;4.430;2023-01-20T16:00:40;100987.88;;;8.51;100.00
27980;BME280;15315;50.836;4.430;2023-01-20T16:10:42;100983.88;;;9.04;100.00
27980;BME280;15315;50.836;4.430;2023-01-20T16:20:45;101002.03;;;9.30;100.00
27980;BME280;15315;50.836;4.430;2023-01-20T16:30:47;101027.16;;;7.06;100.00
27980;BME280;15315;50.836;4.430;2023-01-20T16:40:51;101041.72;;;7.34;100.00
27980;BME280;15315;50.836;4.430;2023-01-20T16:50:52;101071.97;;;6.85;100.00
27980;BME280;15315;50.836;4.430;2023-01-20T17:00:52;101096.63;;;6.56;100.00
27980;BME280;15315;50.836;4.430;2023-01-20T17:10:52;101092.50;;;6.67;100.00
27980;BME280;15315;50.836;4.430;2023-01-20T17:20:53;101088.34;;;7.66;100.00
27980;BME280;15315;50.836;4.430;2023-01-20T17:30:53;101091.84;;;7.68;100.00
27980;BME280;15315;50.836;4.430;2023-01-20T17:41:00;101090.94;;;7.68;100.00
27980;BME280;15315;50.836;4.430;2023-01-20T17:51:07;101099.91;;;7.68;100.00
27980;BME280;15315;50.836;4.430;2023-01-20T18:01:12;101104.69;;;7.96;100.00
27980;BME280;15315;50.836;4.430;2023-01-20T18:11:13;101155.38;;;6.96;100.00
27980;BME280;15315;50.836;4.430;2023-01-20T18:21:22;101194.38;;;5.45;100.00
27980;BME280;15315;50.836;4.430;2023-01-20T18:31:24;101224.41;;;5.52;100.00
27980;BME280;15315;50.836;4.430;2023-01-20T18:41:27;101235.44;;;6.46;100.00
27980;BME280;15315;50.836;4.430;2023-01-20T18:51:29;101255.19;;;7.01;100.00
27980;BME280;15315;50.836;4.430;2023-01-20T19:01:39;101283.91;;;5.78;100.00
27980;BME280;15315;50.836;4.430;2023-01-20T19:11:40;101300.56;;;4.97;100.00
27980;BME280;15315;50.836;4.430;2023-01-20T19:21:41;101323.88;;;5.38;100.00
27980;BME280;15315;50.836;4.430;2023-01-20T19:31:42;101353.28;;;4.92;100.00
27980;BME280;15315;50.836;4.430;2023-01-20T19:41:42;101372.72;;;4.46;100.00
27980;BME280;15315;50.836;4.430;2023-01-20T19:51:42;101403.25;;;3.83;100.00
27980;BME280;15315;50.836;4.430;2023-01-20T20:01:43;101418.03;;;3.06;100.00
27980;BME280;15315;50.836;4.430;2023-01-20T20:11:44;101451.63;;;3.42;100.00
27980;BME280;15315;50.836;4.430;2023-01-20T20:21:45;101464.53;;;3.85;100.00
27980;BME280;15315;50.836;4.430;2023-01-20T20:31:45;101501.91;;;3.54;100.00
27980;BME280;15315;50.836;4.430;2023-01-20T20:41:46;101512.63;;;3.52;100.00
27980;BME280;15315;50.836;4.430;2023-01-20T20:51:46;101548.19;;;3.82;100.00
27980;BME280;15315;50.836;4.430;2023-01-20T21:01:47;101560.75;;;3.79;100.00
27980;BME280;15315;50.836;4.430;2023-01-20T21:11:47;101586.88;;;4.26;100.00
27980;BME280;15315;50.836;4.430;2023-01-20T21:21:47;101598.41;;;4.28;100.00
27980;BME280;15315;50.836;4.430;2023-01-20T21:31:48;101629.09;;;3.50;100.00
27980;BME280;15315;50.836;4.430;2023-01-20T21:41:49;101640.16;;;4.31;100.00
27980;BME280;15315;50.836;4.430;2023-01-20T21:51:49;101663.78;;;4.44;100.00
27980;BME280;15315;50.836;4.430;2023-01-20T22:02:10;101680.38;;;4.23;100.00
27980;BME280;15315;50.836;4.430;2023-01-20T22:12:11;101703.00;;;4.42;100.00
27980;BME280;15315;50.836;4.430;2023-01-20T22:22:12;101716.41;;;4.99;100.00
27980;BME280;15315;50.836;4.430;2023-01-20T22:32:12;101745.66;;;4.44;100.00
27980;BME280;15315;50.836;4.430;2023-01-20T22:42:13;101761.50;;;4.80;100.00
27980;BME280;15315;50.836;4.430;2023-01-20T22:52:13;101787.25;;;4.52;100.00
27980;BME280;15315;50.836;4.430;2023-01-20T23:02:14;101800.16;;;3.68;100.00
27980;BME280;15315;50.836;4.430;2023-01-20T23:12:14;101816.28;;;4.64;100.00
27980;BME280;15315;50.836;4.430;2023-01-20T23:22:15;101845.97;;;4.18;100.00
27980;BME280;15315;50.836;4.430;2023-01-20T23:32:15;101851.56;;;4.09;100.00
27980;BME280;15315;50.836;4.430;2023-01-20T23:42:16;101871.63;;;4.24;100.00
27980;BME280;15315;50.836;4.430;2023-01-20T23:52:16;101899.31;;;4.20;100.00
